sensor_id;sensor_type;location;lat;lon;timestamp;pressure;altitude;pressure_sealevel;temperature;humidity
71621;BME280;59471;42.254;23.102;2023-09-19T00:00:37;96244.41;;;14.84;80.35
71621;BME280;59471;42.254;23.102;2023-09-19T00:03:05;96229.09;;;14.67;81.39
71621;BME280;59471;42.254;23.102;2023-09-19T00:05:34;96216.00;;;14.80;80.28
71621;BME280;59471;42.254;23.102;2023-09-19T00:08:01;96229.47;;;14.92;80.03
71621;BME280;59471;42.254;23.102;2023-09-19T00:10:29;96233.94;;;14.91;80.16
71621;BME280;59471;42.254;23.102;2023-09-19T00:13:01;96233.25;;;14.82;80.91
71621;BME280;59471;42.254;23.102;2023-09-19T00:15:35;96235.09;;;14.82;80.50
71621;BME280;59471;42.254;23.102;2023-09-19T00:18:03;96233.00;;;14.77;80.92
71621;BME280;59471;42.254;23.102;2023-09-19T00:20:31;96231.00;;;14.79;80.33
71621;BME280;59471;42.254;23.102;2023-09-19T00:22:57;96232.41;;;14.75;80.94
71621;BME280;59471;42.254;23.102;2023-09-19T00:25:27;96234.69;;;14.85;80.29
71621;BME280;59471;42.254;23.102;2023-09-19T00:27:54;96232.59;;;14.74;80.82
71621;BME280;59471;42.254;23.102;2023-09-19T00:30:19;96235.81;;;14.69;81.03
71621;BME280;59471;42.254;23.102;2023-09-19T00:32:50;96231.06;;;14.58;81.33
71621;BME280;59471;42.254;23.102;2023-09-19T00:35:20;96228.41;;;14.51;81.34
71621;BME280;59471;42.254;23.102;2023-09-19T00:37:49;96224.75;;;14.52;81.18
71621;BME280;59471;42.254;23.102;2023-09-19T00:40:14;96227.81;;;14.56;80.92
71621;BME280;59471;42.254;23.102;2023-09-19T00:42:43;96233.72;;;14.58;80.40
71621;BME280;59471;42.254;23.102;2023-09-19T00:45:14;96231.75;;;14.67;80.76
71621;BME280;59471;42.254;23.102;2023-09-19T00:47:48;96236.34;;;14.58;80.88
71621;BME280;59471;42.254;23.102;2023-09-19T00:50:17;96234.03;;;14.48;81.45
71621;BME280;59471;42.254;23.102;2023-09-19T00:52:46;96230.66;;;14.54;81.15
71621;BME280;59471;42.254;23.102;2023-09-19T00:55:14;96232.25;;;14.55;81.03
71621;BME280;59471;42.254;23.102;2023-09-19T00:57:41;96223.16;;;14.58;80.70
71621;BME280;59471;42.254;23.102;2023-09-19T01:00:08;96224.38;;;14.55;80.85
71621;BME280;59471;42.254;23.102;2023-09-19T01:02:41;96223.13;;;14.51;81.37
71621;BME280;59471;42.254;23.102;2023-09-19T01:05:11;96221.47;;;14.50;81.21
71621;BME280;59471;42.254;23.102;2023-09-19T01:07:38;96225.09;;;14.49;81.09
71621;BME280;59471;42.254;23.102;2023-09-19T01:10:08;96231.94;;;14.44;81.08
71621;BME280;59471;42.254;23.102;2023-09-19T01:12:47;96228.72;;;14.42;81.50
71621;BME280;59471;42.254;23.102;2023-09-19T01:23:46;96224.44;;;14.12;82.33
71621;BME280;59471;42.254;23.102;2023-09-19T01:29:46;96219.47;;;14.03;82.29
71621;BME280;59471;42.254;23.102;2023-09-19T01:32:19;96219.94;;;13.85;83.01
71621;BME280;59471;42.254;23.102;2023-09-19T01:34:56;96222.41;;;13.93;82.91
71621;BME280;59471;42.254;23.102;2023-09-19T01:37:29;96218.09;;;14.07;82.39
71621;BME280;59471;42.254;23.102;2023-09-19T01:40:07;96216.00;;;14.24;81.50
71621;BME280;59471;42.254;23.102;2023-09-19T01:43:27;96220.03;;;14.20;81.26
71621;BME280;59471;42.254;23.102;2023-09-19T01:46:13;96219.66;;;14.23;81.94
71621;BME280;59471;42.254;23.102;2023-09-19T01:48:54;96219.22;;;13.98;82.65
71621;BME280;59471;42.254;23.102;2023-09-19T01:54:52;96214.19;;;14.03;82.67
71621;BME280;59471;42.254;23.102;2023-09-19T01:57:27;96218.28;;;14.05;83.32
71621;BME280;59471;42.254;23.102;2023-09-19T02:00:15;96219.19;;;13.91;83.63
71621;BME280;59471;42.254;23.102;2023-09-19T02:02:44;96224.25;;;13.93;83.50
71621;BME280;59471;42.254;23.102;2023-09-19T02:05:13;96229.56;;;13.99;83.26
71621;BME280;59471;42.254;23.102;2023-09-19T02:07:39;96225.13;;;14.00;83.62
71621;BME280;59471;42.254;23.102;2023-09-19T02:10:06;96221.22;;;14.17;82.72
71621;BME280;59471;42.254;23.102;2023-09-19T02:12:33;96224.06;;;14.16;82.61
71621;BME280;59471;42.254;23.102;2023-09-19T02:15:00;96226.69;;;13.94;83.58
71621;BME280;59471;42.254;23.102;2023-09-19T02:17:26;96227.81;;;14.06;83.16
71621;BME280;59471;42.254;23.102;2023-09-19T02:19:53;96219.91;;;14.06;82.86
71621;BME280;59471;42.254;23.102;2023-09-19T02:22:20;96220.34;;;14.10;82.94
71621;BME280;59471;42.254;23.102;2023-09-19T02:24:50;96217.84;;;14.02;82.64
71621;BME280;59471;42.254;23.102;2023-09-19T02:27:16;96214.13;;;13.96;82.49
71621;BME280;59471;42.254;23.102;2023-09-19T02:29:43;96212.13;;;13.98;82.86
71621;BME280;59471;42.254;23.102;2023-09-19T02:32:08;96215.97;;;13.96;82.41
71621;BME280;59471;42.254;23.102;2023-09-19T02:34:37;96208.94;;;14.03;82.40
71621;BME280;59471;42.254;23.102;2023-09-19T02:37:07;96205.13;;;13.84;83.09
71621;BME280;59471;42.254;23.102;2023-09-19T02:39:34;96216.41;;;13.56;84.10
71621;BME280;59471;42.254;23.102;2023-09-19T02:42:00;96216.56;;;13.55;84.73
71621;BME280;59471;42.254;23.102;2023-09-19T02:44:26;96209.75;;;13.60;85.00
71621;BME280;59471;42.254;23.102;2023-09-19T02:46:52;96202.56;;;13.69;84.29
71621;BME280;59471;42.254;23.102;2023-09-19T02:49:18;96199.72;;;13.71;83.65
71621;BME280;59471;42.254;23.102;2023-09-19T02:51:44;96200.72;;;13.48;84.69
71621;BME280;59471;42.254;23.102;2023-09-19T02:54:11;96192.41;;;13.66;84.48
71621;BME280;59471;42.254;23.102;2023-09-19T02:56:37;96201.09;;;13.45;84.58
71621;BME280;59471;42.254;23.102;2023-09-19T02:59:03;96203.41;;;13.55;85.08
71621;BME280;59471;42.254;23.102;2023-09-19T03:01:28;96188.06;;;13.58;83.71
71621;BME280;59471;42.254;23.102;2023-09-19T03:03:54;96188.81;;;13.52;83.65
71621;BME280;59471;42.254;23.102;2023-09-19T03:06:21;96189.09;;;13.57;83.60
71621;BME280;59471;42.254;23.102;2023-09-19T03:08:47;96179.44;;;13.64;83.69
71621;BME280;59471;42.254;23.102;2023-09-19T03:11:15;96174.84;;;13.52;84.39
71621;BME280;59471;42.254;23.102;2023-09-19T03:13:41;96168.91;;;13.64;83.65
71621;BME280;59471;42.254;23.102;2023-09-19T03:16:08;96166.47;;;13.63;83.64
71621;BME280;59471;42.254;23.102;2023-09-19T03:18:34;96167.16;;;13.50;84.34
71621;BME280;59471;42.254;23.102;2023-09-19T03:21:00;96163.13;;;13.54;84.72
71621;BME280;59471;42.254;23.102;2023-09-19T03:23:27;96158.84;;;13.47;84.89
71621;BME280;59471;42.254;23.102;2023-09-19T03:25:57;96169.97;;;13.49;85.00
71621;BME280;59471;42.254;23.102;2023-09-19T03:28:24;96176.28;;;13.54;85.35
71621;BME280;59471;42.254;23.102;2023-09-19T03:31:05;96190.19;;;13.48;85.29
71621;BME280;59471;42.254;23.102;2023-09-19T03:33:32;96194.59;;;13.41;85.15
71621;BME280;59471;42.254;23.102;2023-09-19T03:35:59;96190.78;;;13.43;84.79
71621;BME280;59471;42.254;23.102;2023-09-19T03:38:26;96187.72;;;13.40;85.00
71621;BME280;59471;42.254;23.102;2023-09-19T03:40:53;96192.78;;;13.27;85.06
71621;BME280;59471;42.254;23.102;2023-09-19T03:43:18;96203.22;;;13.35;84.20
71621;BME280;59471;42.254;23.102;2023-09-19T03:45:44;96200.22;;;13.38;83.68
71621;BME280;59471;42.254;23.102;2023-09-19T03:48:12;96211.19;;;13.41;83.35
71621;BME280;59471;42.254;23.102;2023-09-19T03:50:38;96212.56;;;13.22;84.35
71621;BME280;59471;42.254;23.102;2023-09-19T03:53:04;96213.66;;;13.13;84.92
71621;BME280;59471;42.254;23.102;2023-09-19T03:55:30;96208.03;;;13.16;84.41
71621;BME280;59471;42.254;23.102;2023-09-19T03:57:56;96205.88;;;13.05;84.57
71621;BME280;59471;42.254;23.102;2023-09-19T04:00:22;96214.88;;;12.81;86.03
71621;BME280;59471;42.254;23.102;2023-09-19T04:02:51;96219.66;;;13.07;85.30
71621;BME280;59471;42.254;23.102;2023-09-19T04:05:17;96218.41;;;13.03;85.37
71621;BME280;59471;42.254;23.102;2023-09-19T04:07:43;96221.09;;;12.95;86.21
71621;BME280;59471;42.254;23.102;2023-09-19T04:10:09;96222.47;;;13.06;86.14
71621;BME280;59471;42.254;23.102;2023-09-19T04:12:37;96227.19;;;13.25;85.14
71621;BME280;59471;42.254;23.102;2023-09-19T04:15:04;96230.31;;;13.20;85.22
71621;BME280;59471;42.254;23.102;2023-09-19T04:17:31;96219.03;;;13.05;84.91
71621;BME280;59471;42.254;23.102;2023-09-19T04:19:58;96231.16;;;13.21;84.82
71621;BME280;59471;42.254;23.102;2023-09-19T04:22:24;96227.91;;;13.34;84.13
71621;BME280;59471;42.254;23.102;2023-09-19T04:24:50;96236.25;;;13.37;83.92
71621;BME280;59471;42.254;23.102;2023-09-19T04:27:16;96231.63;;;13.25;84.56
71621;BME280;59471;42.254;23.102;2023-09-19T04:29:41;96231.28;;;13.28;83.65
71621;BME280;59471;42.254;23.102;2023-09-19T04:32:07;96232.34;;;12.89;84.69
71621;BME280;59471;42.254;23.102;2023-09-19T04:34:34;96231.72;;;12.87;85.78
71621;BME280;59471;42.254;23.102;2023-09-19T04:37:00;96236.59;;;13.05;85.83
71621;BME280;59471;42.254;23.102;2023-09-19T04:39:26;96236.81;;;13.03;85.99
71621;BME280;59471;42.254;23.102;2023-09-19T04:41:52;96241.94;;;13.11;85.79
71621;BME280;59471;42.254;23.102;2023-09-19T04:44:18;96236.53;;;13.28;85.78
71621;BME280;59471;42.254;23.102;2023-09-19T04:46:44;96232.66;;;13.45;84.71
71621;BME280;59471;42.254;23.102;2023-09-19T04:49:11;96220.53;;;13.44;84.95
71621;BME280;59471;42.254;23.102;2023-09-19T04:51:37;96211.31;;;13.55;84.93
71621;BME280;59471;42.254;23.102;2023-09-19T04:54:03;96214.88;;;13.47;85.46
71621;BME280;59471;42.254;23.102;2023-09-19T04:56:29;96222.88;;;13.39;86.32
71621;BME280;59471;42.254;23.102;2023-09-19T04:58:55;96218.50;;;13.46;86.27
71621;BME280;59471;42.254;23.102;2023-09-19T05:01:20;96215.47;;;13.64;86.18
71621;BME280;59471;42.254;23.102;2023-09-19T05:03:48;96221.91;;;13.83;85.94
71621;BME280;59471;42.254;23.102;2023-09-19T05:06:21;96222.06;;;13.75;85.32
71621;BME280;59471;42.254;23.102;2023-09-19T05:08:47;96219.78;;;14.14;84.80
71621;BME280;59471;42.254;23.102;2023-09-19T05:11:19;96218.50;;;14.32;84.27
71621;BME280;59471;42.254;23.102;2023-09-19T05:13:49;96215.22;;;14.30;84.65
71621;BME280;59471;42.254;23.102;2023-09-19T05:16:16;96210.94;;;14.50;84.06
71621;BME280;59471;42.254;23.102;2023-09-19T05:18:42;96215.59;;;14.76;83.55
71621;BME280;59471;42.254;23.102;2023-09-19T05:21:07;96215.63;;;14.83;83.69
71621;BME280;59471;42.254;23.102;2023-09-19T05:23:33;96221.69;;;14.83;84.34
71621;BME280;59471;42.254;23.102;2023-09-19T05:25:59;96215.72;;;15.03;84.15
71621;BME280;59471;42.254;23.102;2023-09-19T05:28:25;96213.72;;;15.12;83.71
71621;BME280;59471;42.254;23.102;2023-09-19T05:30:52;96217.81;;;15.21;83.30
71621;BME280;59471;42.254;23.102;2023-09-19T05:33:19;96215.47;;;15.39;83.41
71621;BME280;59471;42.254;23.102;2023-09-19T05:35:45;96215.50;;;15.52;83.43
71621;BME280;59471;42.254;23.102;2023-09-19T05:38:12;96214.28;;;15.48;83.30
71621;BME280;59471;42.254;23.102;2023-09-19T05:40:39;96213.09;;;15.58;84.28
71621;BME280;59471;42.254;23.102;2023-09-19T05:43:08;96203.81;;;15.88;82.90
71621;BME280;59471;42.254;23.102;2023-09-19T05:45:34;96202.59;;;16.11;80.78
71621;BME280;59471;42.254;23.102;2023-09-19T05:48:10;96190.81;;;16.20;80.02
71621;BME280;59471;42.254;23.102;2023-09-19T05:50:38;96188.16;;;16.07;80.57
71621;BME280;59471;42.254;23.102;2023-09-19T05:53:04;96189.19;;;16.06;80.44
71621;BME280;59471;42.254;23.102;2023-09-19T05:55:30;96190.81;;;16.07;81.41
71621;BME280;59471;42.254;23.102;2023-09-19T05:57:56;96190.00;;;15.99;81.96
71621;BME280;59471;42.254;23.102;2023-09-19T06:00:22;96189.78;;;16.34;79.53
71621;BME280;59471;42.254;23.102;2023-09-19T06:05:18;96190.41;;;15.70;80.88
71621;BME280;59471;42.254;23.102;2023-09-19T06:07:44;96188.34;;;15.85;81.09
71621;BME280;59471;42.254;23.102;2023-09-19T06:10:10;96192.84;;;16.31;79.54
71621;BME280;59471;42.254;23.102;2023-09-19T06:12:39;96192.44;;;16.08;80.34
71621;BME280;59471;42.254;23.102;2023-09-19T06:15:05;96194.66;;;16.44;79.10
71621;BME280;59471;42.254;23.102;2023-09-19T06:17:34;96195.06;;;16.54;79.23
71621;BME280;59471;42.254;23.102;2023-09-19T06:20:06;96199.72;;;16.45;79.18
71621;BME280;59471;42.254;23.102;2023-09-19T06:22:41;96205.22;;;16.51;79.82
71621;BME280;59471;42.254;23.102;2023-09-19T06:25:08;96195.06;;;16.41;80.79
71621;BME280;59471;42.254;23.102;2023-09-19T06:27:41;96196.94;;;16.27;82.09
71621;BME280;59471;42.254;23.102;2023-09-19T06:30:08;96203.03;;;16.14;83.71
71621;BME280;59471;42.254;23.102;2023-09-19T06:32:35;96195.91;;;16.35;81.94
71621;BME280;59471;42.254;23.102;2023-09-19T06:35:01;96207.88;;;16.11;82.46
71621;BME280;59471;42.254;23.102;2023-09-19T06:37:28;96206.25;;;16.10;83.10
71621;BME280;59471;42.254;23.102;2023-09-19T06:39:54;96208.31;;;16.34;82.14
71621;BME280;59471;42.254;23.102;2023-09-19T06:42:20;96211.72;;;16.55;80.62
71621;BME280;59471;42.254;23.102;2023-09-19T06:44:48;96207.28;;;16.35;81.02
71621;BME280;59471;42.254;23.102;2023-09-19T06:47:14;96211.75;;;16.41;81.69
71621;BME280;59471;42.254;23.102;2023-09-19T06:49:41;96207.84;;;16.64;79.84
71621;BME280;59471;42.254;23.102;2023-09-19T06:52:09;96214.56;;;16.93;79.54
71621;BME280;59471;42.254;23.102;2023-09-19T06:54:35;96206.19;;;16.96;77.83
71621;BME280;59471;42.254;23.102;2023-09-19T06:57:01;96204.91;;;17.05;78.28
71621;BME280;59471;42.254;23.102;2023-09-19T06:59:27;96208.41;;;16.92;78.29
71621;BME280;59471;42.254;23.102;2023-09-19T07:01:52;96212.28;;;16.97;77.89
71621;BME280;59471;42.254;23.102;2023-09-19T07:04:18;96209.81;;;17.15;77.92
71621;BME280;59471;42.254;23.102;2023-09-19T07:06:49;96206.81;;;17.43;76.94
71621;BME280;59471;42.254;23.102;2023-09-19T07:09:16;96207.09;;;17.67;75.73
71621;BME280;59471;42.254;23.102;2023-09-19T07:11:42;96221.31;;;17.79;74.99
71621;BME280;59471;42.254;23.102;2023-09-19T07:14:08;96224.56;;;17.74;75.54
71621;BME280;59471;42.254;23.102;2023-09-19T07:16:37;96215.13;;;17.92;75.56
71621;BME280;59471;42.254;23.102;2023-09-19T07:19:04;96210.63;;;17.92;75.04
71621;BME280;59471;42.254;23.102;2023-09-19T07:21:30;96225.13;;;17.90;75.01
71621;BME280;59471;42.254;23.102;2023-09-19T07:23:59;96225.72;;;17.92;75.04
71621;BME280;59471;42.254;23.102;2023-09-19T07:26:26;96221.63;;;17.96;74.45
71621;BME280;59471;42.254;23.102;2023-09-19T07:28:53;96216.56;;;18.19;73.77
71621;BME280;59471;42.254;23.102;2023-09-19T07:31:19;96218.38;;;18.44;73.90
71621;BME280;59471;42.254;23.102;2023-09-19T07:33:45;96212.00;;;18.77;73.77
71621;BME280;59471;42.254;23.102;2023-09-19T07:36:11;96212.47;;;18.67;72.47
71621;BME280;59471;42.254;23.102;2023-09-19T07:38:40;96208.94;;;18.98;72.98
71621;BME280;59471;42.254;23.102;2023-09-19T07:41:07;96197.69;;;18.78;71.18
71621;BME280;59471;42.254;23.102;2023-09-19T07:43:34;96203.47;;;18.93;71.04
71621;BME280;59471;42.254;23.102;2023-09-19T07:46:07;96204.50;;;18.92;69.52
71621;BME280;59471;42.254;23.102;2023-09-19T07:48:37;96197.50;;;18.54;70.35
71621;BME280;59471;42.254;23.102;2023-09-19T07:51:07;96203.34;;;18.38;71.30
71621;BME280;59471;42.254;23.102;2023-09-19T07:53:37;96187.09;;;18.78;70.44
71621;BME280;59471;42.254;23.102;2023-09-19T07:56:06;96199.31;;;18.79;72.38
71621;BME280;59471;42.254;23.102;2023-09-19T07:58:34;96199.13;;;19.17;69.57
71621;BME280;59471;42.254;23.102;2023-09-19T08:01:07;96203.16;;;19.19;68.35
71621;BME280;59471;42.254;23.102;2023-09-19T08:03:34;96202.84;;;19.28;66.36
71621;BME280;59471;42.254;23.102;2023-09-19T08:06:01;96200.88;;;19.23;67.42
71621;BME280;59471;42.254;23.102;2023-09-19T08:08:27;96200.22;;;19.09;65.16
71621;BME280;59471;42.254;23.102;2023-09-19T08:10:56;96205.50;;;19.28;64.40
71621;BME280;59471;42.254;23.102;2023-09-19T08:13:25;96201.56;;;19.49;64.99
71621;BME280;59471;42.254;23.102;2023-09-19T08:15:51;96202.28;;;19.74;66.02
71621;BME280;59471;42.254;23.102;2023-09-19T08:18:18;96206.16;;;19.90;65.10
71621;BME280;59471;42.254;23.102;2023-09-19T08:20:52;96197.13;;;19.91;64.10
71621;BME280;59471;42.254;23.102;2023-09-19T08:23:18;96203.88;;;20.05;64.37
71621;BME280;59471;42.254;23.102;2023-09-19T08:25:47;96198.09;;;20.08;62.61
71621;BME280;59471;42.254;23.102;2023-09-19T08:28:13;96189.91;;;20.22;62.11
71621;BME280;59471;42.254;23.102;2023-09-19T08:30:45;96191.06;;;20.37;59.77
71621;BME280;59471;42.254;23.102;2023-09-19T08:33:11;96193.06;;;19.77;62.09
71621;BME280;59471;42.254;23.102;2023-09-19T08:35:37;96190.91;;;19.67;62.86
71621;BME280;59471;42.254;23.102;2023-09-19T08:38:05;96191.69;;;19.98;62.25
71621;BME280;59471;42.254;23.102;2023-09-19T08:40:32;96190.66;;;19.87;61.03
71621;BME280;59471;42.254;23.102;2023-09-19T08:42:59;96185.75;;;20.37;61.19
71621;BME280;59471;42.254;23.102;2023-09-19T08:45:26;96194.13;;;20.53;61.11
71621;BME280;59471;42.254;23.102;2023-09-19T08:50:27;96196.09;;;20.81;59.63
71621;BME280;59471;42.254;23.102;2023-09-19T08:52:55;96187.72;;;20.77;60.94
71621;BME280;59471;42.254;23.102;2023-09-19T08:55:27;96192.69;;;21.09;59.77
71621;BME280;59471;42.254;23.102;2023-09-19T08:58:04;96187.00;;;21.05;60.81
71621;BME280;59471;42.254;23.102;2023-09-19T09:00:32;96181.56;;;21.52;57.18
71621;BME280;59471;42.254;23.102;2023-09-19T09:03:00;96174.44;;;21.29;60.45
71621;BME280;59471;42.254;23.102;2023-09-19T09:05:27;96160.94;;;21.60;60.47
71621;BME280;59471;42.254;23.102;2023-09-19T09:07:54;96158.16;;;21.55;56.85
71621;BME280;59471;42.254;23.102;2023-09-19T09:10:22;96149.66;;;21.29;57.28
71621;BME280;59471;42.254;23.102;2023-09-19T09:12:52;96139.88;;;21.46;58.82
71621;BME280;59471;42.254;23.102;2023-09-19T09:15:22;96148.03;;;21.85;59.01
71621;BME280;59471;42.254;23.102;2023-09-19T09:17:51;96134.94;;;21.84;57.61
71621;BME280;59471;42.254;23.102;2023-09-19T09:20:20;96136.84;;;21.55;57.24
71621;BME280;59471;42.254;23.102;2023-09-19T09:22:56;96130.13;;;21.69;57.14
71621;BME280;59471;42.254;23.102;2023-09-19T09:25:49;96128.91;;;21.88;56.45
71621;BME280;59471;42.254;23.102;2023-09-19T09:28:21;96115.56;;;22.05;57.89
71621;BME280;59471;42.254;23.102;2023-09-19T09:30:54;96124.25;;;21.67;57.02
71621;BME280;59471;42.254;23.102;2023-09-19T09:33:20;96110.53;;;22.09;57.98
71621;BME280;59471;42.254;23.102;2023-09-19T09:35:52;96111.69;;;22.30;57.09
71621;BME280;59471;42.254;23.102;2023-09-19T09:38:19;96111.41;;;22.48;55.99
71621;BME280;59471;42.254;23.102;2023-09-19T09:40:49;96113.97;;;22.82;54.45
71621;BME280;59471;42.254;23.102;2023-09-19T09:43:35;96109.44;;;22.99;55.43
71621;BME280;59471;42.254;23.102;2023-09-19T09:48:56;96104.84;;;23.44;50.75
71621;BME280;59471;42.254;23.102;2023-09-19T09:51:51;96094.81;;;23.07;51.86
71621;BME280;59471;42.254;23.102;2023-09-19T09:54:29;96102.50;;;23.25;54.24
71621;BME280;59471;42.254;23.102;2023-09-19T09:57:07;96102.41;;;23.15;53.66
71621;BME280;59471;42.254;23.102;2023-09-19T09:59:54;96087.97;;;23.16;52.71
71621;BME280;59471;42.254;23.102;2023-09-19T10:02:41;96093.91;;;23.23;53.61
71621;BME280;59471;42.254;23.102;2023-09-19T10:05:25;96089.69;;;23.54;54.47
71621;BME280;59471;42.254;23.102;2023-09-19T10:08:11;96099.88;;;23.85;53.04
71621;BME280;59471;42.254;23.102;2023-09-19T10:10:39;96096.72;;;23.93;51.90
71621;BME280;59471;42.254;23.102;2023-09-19T10:13:10;96089.94;;;24.12;49.42
71621;BME280;59471;42.254;23.102;2023-09-19T10:15:42;96073.72;;;23.92;49.61
71621;BME280;59471;42.254;23.102;2023-09-19T10:18:22;96076.16;;;23.66;52.94
71621;BME280;59471;42.254;23.102;2023-09-19T10:20:49;96068.75;;;23.73;52.97
71621;BME280;59471;42.254;23.102;2023-09-19T10:23:17;96064.44;;;24.04;53.29
71621;BME280;59471;42.254;23.102;2023-09-19T10:25:52;96052.72;;;24.11;50.40
71621;BME280;59471;42.254;23.102;2023-09-19T10:28:18;96050.16;;;23.84;52.26
71621;BME280;59471;42.254;23.102;2023-09-19T10:30:50;96049.09;;;23.03;53.24
71621;BME280;59471;42.254;23.102;2023-09-19T10:33:18;96051.25;;;22.84;53.50
71621;BME280;59471;42.254;23.102;2023-09-19T10:35:49;96047.03;;;23.38;53.63
71621;BME280;59471;42.254;23.102;2023-09-19T10:38:23;96043.94;;;24.15;50.31
71621;BME280;59471;42.254;23.102;2023-09-19T10:40:51;96037.59;;;24.32;51.63
71621;BME280;59471;42.254;23.102;2023-09-19T10:43:21;96040.53;;;24.83;50.96
71621;BME280;59471;42.254;23.102;2023-09-19T10:45:48;96035.91;;;24.68;48.62
71621;BME280;59471;42.254;23.102;2023-09-19T10:48:17;96034.28;;;24.57;50.27
71621;BME280;59471;42.254;23.102;2023-09-19T10:51:25;96038.31;;;24.64;48.57
71621;BME280;59471;42.254;23.102;2023-09-19T10:54:10;96032.88;;;24.44;49.67
71621;BME280;59471;42.254;23.102;2023-09-19T10:56:42;96023.41;;;24.31;50.40
71621;BME280;59471;42.254;23.102;2023-09-19T10:59:14;96017.41;;;24.61;51.60
71621;BME280;59471;42.254;23.102;2023-09-19T11:01:49;96021.31;;;25.01;48.86
71621;BME280;59471;42.254;23.102;2023-09-19T11:07:09;96012.16;;;24.82;50.15
71621;BME280;59471;42.254;23.102;2023-09-19T11:09:56;96019.53;;;24.54;52.58
71621;BME280;59471;42.254;23.102;2023-09-19T11:14:56;96008.22;;;24.42;51.81
71621;BME280;59471;42.254;23.102;2023-09-19T11:17:31;96010.50;;;24.70;50.30
71621;BME280;59471;42.254;23.102;2023-09-19T11:30:51;95988.13;;;25.99;47.93
71621;BME280;59471;42.254;23.102;2023-09-19T11:33:32;95975.28;;;25.40;47.14
71621;BME280;59471;42.254;23.102;2023-09-19T11:36:11;95972.06;;;25.79;46.38
71621;BME280;59471;42.254;23.102;2023-09-19T11:46:24;95950.09;;;25.41;49.30
71621;BME280;59471;42.254;23.102;2023-09-19T11:48:53;95940.94;;;25.73;48.49
71621;BME280;59471;42.254;23.102;2023-09-19T11:51:24;95942.56;;;25.58;47.60
71621;BME280;59471;42.254;23.102;2023-09-19T11:53:57;95937.75;;;25.45;47.21
71621;BME280;59471;42.254;23.102;2023-09-19T11:56:26;95931.00;;;25.63;46.42
71621;BME280;59471;42.254;23.102;2023-09-19T11:58:56;95933.44;;;25.44;48.93
71621;BME280;59471;42.254;23.102;2023-09-19T12:01:33;95929.38;;;25.72;48.45
71621;BME280;59471;42.254;23.102;2023-09-19T12:04:02;95930.75;;;25.59;48.59
71621;BME280;59471;42.254;23.102;2023-09-19T12:06:30;95934.50;;;25.79;47.88
71621;BME280;59471;42.254;23.102;2023-09-19T12:08:57;95935.53;;;25.93;47.57
71621;BME280;59471;42.254;23.102;2023-09-19T12:11:27;95919.34;;;26.24;45.21
71621;BME280;59471;42.254;23.102;2023-09-19T12:13:58;95923.03;;;26.43;46.36
71621;BME280;59471;42.254;23.102;2023-09-19T12:16:26;95909.06;;;26.41;46.28
71621;BME280;59471;42.254;23.102;2023-09-19T12:18:56;95905.47;;;26.01;44.37
71621;BME280;59471;42.254;23.102;2023-09-19T12:21:30;95908.94;;;26.07;46.52
71621;BME280;59471;42.254;23.102;2023-09-19T12:24:11;95920.44;;;26.18;47.57
71621;BME280;59471;42.254;23.102;2023-09-19T12:26:43;95904.44;;;25.92;47.12
71621;BME280;59471;42.254;23.102;2023-09-19T12:29:15;95908.13;;;26.17;46.78
71621;BME280;59471;42.254;23.102;2023-09-19T12:34:27;95905.59;;;26.35;47.96
71621;BME280;59471;42.254;23.102;2023-09-19T12:37:23;95906.47;;;26.21;45.75
71621;BME280;59471;42.254;23.102;2023-09-19T12:40:04;95891.97;;;26.27;46.88
71621;BME280;59471;42.254;23.102;2023-09-19T12:42:40;95894.69;;;26.71;47.92
71621;BME280;59471;42.254;23.102;2023-09-19T12:45:07;95891.13;;;27.20;46.88
71621;BME280;59471;42.254;23.102;2023-09-19T12:47:38;95890.22;;;27.30;44.29
71621;BME280;59471;42.254;23.102;2023-09-19T12:52:52;95881.53;;;27.43;42.56
71621;BME280;59471;42.254;23.102;2023-09-19T12:55:23;95877.56;;;27.65;41.72
71621;BME280;59471;42.254;23.102;2023-09-19T12:58:09;95877.06;;;27.58;42.77
71621;BME280;59471;42.254;23.102;2023-09-19T13:00:42;95874.91;;;27.60;43.79
71621;BME280;59471;42.254;23.102;2023-09-19T13:05:57;95866.78;;;27.65;42.39
71621;BME280;59471;42.254;23.102;2023-09-19T13:08:35;95866.00;;;27.88;40.88
71621;BME280;59471;42.254;23.102;2023-09-19T13:11:16;95862.97;;;27.42;41.54
71621;BME280;59471;42.254;23.102;2023-09-19T13:19:39;95855.44;;;27.68;40.48
71621;BME280;59471;42.254;23.102;2023-09-19T13:22:36;95845.41;;;27.73;39.84
71621;BME280;59471;42.254;23.102;2023-09-19T13:25:09;95848.47;;;27.67;40.12
71621;BME280;59471;42.254;23.102;2023-09-19T13:28:04;95842.94;;;27.82;40.20
71621;BME280;59471;42.254;23.102;2023-09-19T13:30:30;95849.34;;;27.86;42.01
71621;BME280;59471;42.254;23.102;2023-09-19T13:33:09;95838.41;;;28.02;38.96
71621;BME280;59471;42.254;23.102;2023-09-19T13:35:37;95828.44;;;28.02;38.72
71621;BME280;59471;42.254;23.102;2023-09-19T13:38:05;95834.28;;;27.85;40.46
71621;BME280;59471;42.254;23.102;2023-09-19T13:40:34;95827.41;;;27.98;41.86
71621;BME280;59471;42.254;23.102;2023-09-19T13:43:00;95828.19;;;27.99;41.02
71621;BME280;59471;42.254;23.102;2023-09-19T13:45:26;95828.44;;;28.21;39.12
71621;BME280;59471;42.254;23.102;2023-09-19T13:47:52;95829.53;;;28.20;40.83
71621;BME280;59471;42.254;23.102;2023-09-19T13:50:18;95823.97;;;27.92;41.49
71621;BME280;59471;42.254;23.102;2023-09-19T13:52:49;95828.78;;;27.71;42.23
71621;BME280;59471;42.254;23.102;2023-09-19T13:55:17;95831.41;;;27.77;42.35
71621;BME280;59471;42.254;23.102;2023-09-19T13:57:46;95826.94;;;27.43;41.29
71621;BME280;59471;42.254;23.102;2023-09-19T14:00:15;95826.00;;;27.29;43.81
71621;BME280;59471;42.254;23.102;2023-09-19T14:02:41;95825.03;;;27.14;43.67
71621;BME280;59471;42.254;23.102;2023-09-19T14:05:09;95822.16;;;27.06;42.91